sensor_id;sensor_type;location;lat;lon;timestamp;P1;durP1;ratioP1;P2;durP2;ratioP2
53977;SDS011;39886;47.984;-1.586;2023-03-20T00:01:23;1.75;;;1.08;;
53977;SDS011;39886;47.984;-1.586;2023-03-20T00:03:52;1.58;;;1.10;;
53977;SDS011;39886;47.984;-1.586;2023-03-20T00:06:21;1.80;;;1.10;;
53977;SDS011;39886;47.984;-1.586;2023-03-20T00:08:50;1.90;;;1.27;;
53977;SDS011;39886;47.984;-1.586;2023-03-20T00:11:27;2.33;;;1.30;;
53977;SDS011;39886;47.984;-1.586;2023-03-20T00:14:07;1.88;;;1.15;;
53977;SDS011;39886;47.984;-1.586;2023-03-20T00:16:38;1.10;;;1.00;;
53977;SDS011;39886;47.984;-1.586;2023-03-20T00:19:09;1.50;;;1.13;;
53977;SDS011;39886;47.984;-1.586;2023-03-20T00:21:44;1.70;;;1.20;;
53977;SDS011;39886;47.984;-1.586;2023-03-20T00:24:11;1.70;;;1.00;;
53977;SDS011;39886;47.984;-1.586;2023-03-20T00:26:38;1.85;;;1.13;;
53977;SDS011;39886;47.984;-1.586;2023-03-20T00:29:04;1.33;;;1.05;;
53977;SDS011;39886;47.984;-1.586;2023-03-20T00:31:35;1.92;;;1.00;;
53977;SDS011;39886;47.984;-1.586;2023-03-20T00:34:03;1.83;;;1.00;;
53977;SDS011;39886;47.984;-1.586;2023-03-20T00:36:31;2.70;;;1.10;;
53977;SDS011;39886;47.984;-1.586;2023-03-20T00:38:57;1.73;;;1.00;;
53977;SDS011;39886;47.984;-1.586;2023-03-20T00:46:37;2.20;;;1.10;;
53977;SDS011;39886;47.984;-1.586;2023-03-20T00:49:03;1.67;;;0.90;;
53977;SDS011;39886;47.984;-1.586;2023-03-20T00:51:30;2.20;;;1.20;;
53977;SDS011;39886;47.984;-1.586;2023-03-20T00:53:56;1.45;;;1.00;;
53977;SDS011;39886;47.984;-1.586;2023-03-20T00:58:57;2.25;;;1.00;;
53977;SDS011;39886;47.984;-1.586;2023-03-20T01:01:24;2.42;;;1.20;;
53977;SDS011;39886;47.984;-1.586;2023-03-20T01:03:51;1.17;;;0.93;;
53977;SDS011;39886;47.984;-1.586;2023-03-20T01:06:17;1.77;;;1.00;;
53977;SDS011;39886;47.984;-1.586;2023-03-20T01:08:43;1.25;;;1.10;;
53977;SDS011;39886;47.984;-1.586;2023-03-20T01:11:10;1.27;;;1.02;;
53977;SDS011;39886;47.984;-1.586;2023-03-20T01:13:37;1.73;;;1.20;;
53977;SDS011;39886;47.984;-1.586;2023-03-20T01:16:04;2.97;;;1.38;;
53977;SDS011;39886;47.984;-1.586;2023-03-20T01:18:31;1.90;;;1.20;;
53977;SDS011;39886;47.984;-1.586;2023-03-20T01:20:56;2.15;;;1.17;;
53977;SDS011;39886;47.984;-1.586;2023-03-20T01:23:22;1.73;;;1.08;;
53977;SDS011;39886;47.984;-1.586;2023-03-20T01:25:50;2.25;;;1.33;;
53977;SDS011;39886;47.984;-1.586;2023-03-20T01:30:44;2.75;;;1.23;;
53977;SDS011;39886;47.984;-1.586;2023-03-20T01:33:11;1.70;;;1.20;;
53977;SDS011;39886;47.984;-1.586;2023-03-20T01:35:45;3.55;;;1.20;;
53977;SDS011;39886;47.984;-1.586;2023-03-20T01:38:14;2.85;;;1.25;;
53977;SDS011;39886;47.984;-1.586;2023-03-20T01:40:43;1.10;;;0.98;;
53977;SDS011;39886;47.984;-1.586;2023-03-20T01:43:15;1.52;;;1.00;;
53977;SDS011;39886;47.984;-1.586;2023-03-20T01:48:25;1.98;;;1.10;;
53977;SDS011;39886;47.984;-1.586;2023-03-20T01:51:12;0.98;;;0.90;;
53977;SDS011;39886;47.984;-1.586;2023-03-20T01:53:37;1.83;;;1.05;;
53977;SDS011;39886;47.984;-1.586;2023-03-20T01:56:03;1.75;;;1.00;;
53977;SDS011;39886;47.984;-1.586;2023-03-20T01:58:36;1.85;;;1.15;;
53977;SDS011;39886;47.984;-1.586;2023-03-20T02:01:05;1.90;;;1.30;;
53977;SDS011;39886;47.984;-1.586;2023-03-20T02:03:34;2.33;;;1.15;;
53977;SDS011;39886;47.984;-1.586;2023-03-20T02:06:02;2.17;;;1.10;;
53977;SDS011;39886;47.984;-1.586;2023-03-20T02:08:30;1.02;;;0.85;;
53977;SDS011;39886;47.984;-1.586;2023-03-20T02:11:01;0.93;;;0.90;;
53977;SDS011;39886;47.984;-1.586;2023-03-20T02:13:28;1.25;;;1.10;;
53977;SDS011;39886;47.984;-1.586;2023-03-20T02:15:56;1.73;;;1.00;;
53977;SDS011;39886;47.984;-1.586;2023-03-20T02:18:31;1.67;;;1.20;;
53977;SDS011;39886;47.984;-1.586;2023-03-20T02:29:13;1.83;;;1.02;;
53977;SDS011;39886;47.984;-1.586;2023-03-20T02:35:03;1.23;;;1.00;;
53977;SDS011;39886;47.984;-1.586;2023-03-20T02:40:40;2.70;;;1.30;;
53977;SDS011;39886;47.984;-1.586;2023-03-20T02:51:56;2.33;;;1.33;;
53977;SDS011;39886;47.984;-1.586;2023-03-20T02:54:50;1.60;;;1.27;;
53977;SDS011;39886;47.984;-1.586;2023-03-20T02:57:23;1.15;;;1.05;;
53977;SDS011;39886;47.984;-1.586;2023-03-20T03:00:27;2.72;;;1.13;;
53977;SDS011;39886;47.984;-1.586;2023-03-20T03:03:06;1.48;;;1.00;;
53977;SDS011;39886;47.984;-1.586;2023-03-20T03:05:48;1.83;;;1.00;;
53977;SDS011;39886;47.984;-1.586;2023-03-20T03:08:18;1.55;;;1.00;;
53977;SDS011;39886;47.984;-1.586;2023-03-20T03:10:48;1.75;;;1.20;;
53977;SDS011;39886;47.984;-1.586;2023-03-20T03:13:26;2.17;;;1.10;;
53977;SDS011;39886;47.984;-1.586;2023-03-20T03:15:56;3.10;;;1.20;;
53977;SDS011;39886;47.984;-1.586;2023-03-20T03:18:27;1.10;;;1.00;;
53977;SDS011;39886;47.984;-1.586;2023-03-20T03:20:55;1.10;;;1.00;;
53977;SDS011;39886;47.984;-1.586;2023-03-20T03:23:31;1.52;;;0.90;;
53977;SDS011;39886;47.984;-1.586;2023-03-20T03:26:32;1.20;;;1.10;;
53977;SDS011;39886;47.984;-1.586;2023-03-20T03:29:02;1.80;;;0.90;;
53977;SDS011;39886;47.984;-1.586;2023-03-20T03:31:34;1.13;;;1.00;;
53977;SDS011;39886;47.984;-1.586;2023-03-20T03:34:01;1.75;;;1.15;;
53977;SDS011;39886;47.984;-1.586;2023-03-20T03:36:41;1.23;;;1.00;;
53977;SDS011;39886;47.984;-1.586;2023-03-20T03:39:20;2.47;;;1.13;;
53977;SDS011;39886;47.984;-1.586;2023-03-20T03:44:35;1.00;;;1.00;;
53977;SDS011;39886;47.984;-1.586;2023-03-20T03:47:34;1.02;;;0.82;;
53977;SDS011;39886;47.984;-1.586;2023-03-20T03:50:18;1.85;;;1.05;;
53977;SDS011;39886;47.984;-1.586;2023-03-20T03:53:11;1.85;;;0.90;;
53977;SDS011;39886;47.984;-1.586;2023-03-20T03:55:40;2.05;;;1.05;;
53977;SDS011;39886;47.984;-1.586;2023-03-20T03:58:10;1.35;;;1.00;;
53977;SDS011;39886;47.984;-1.586;2023-03-20T04:00:51;1.27;;;0.90;;
53977;SDS011;39886;47.984;-1.586;2023-03-20T04:03:21;2.22;;;1.23;;
53977;SDS011;39886;47.984;-1.586;2023-03-20T04:05:51;1.60;;;1.10;;
53977;SDS011;39886;47.984;-1.586;2023-03-20T04:08:19;1.77;;;1.10;;
53977;SDS011;39886;47.984;-1.586;2023-03-20T04:10:45;1.50;;;1.10;;
53977;SDS011;39886;47.984;-1.586;2023-03-20T04:13:11;1.92;;;1.05;;
53977;SDS011;39886;47.984;-1.586;2023-03-20T04:15:37;1.77;;;1.02;;
53977;SDS011;39886;47.984;-1.586;2023-03-20T04:18:03;2.60;;;1.10;;
53977;SDS011;39886;47.984;-1.586;2023-03-20T04:20:29;1.27;;;1.08;;
53977;SDS011;39886;47.984;-1.586;2023-03-20T04:22:55;1.77;;;1.00;;
53977;SDS011;39886;47.984;-1.586;2023-03-20T04:25:21;1.27;;;1.13;;
53977;SDS011;39886;47.984;-1.586;2023-03-20T04:27:50;2.05;;;1.00;;
53977;SDS011;39886;47.984;-1.586;2023-03-20T04:30:16;1.40;;;0.88;;
53977;SDS011;39886;47.984;-1.586;2023-03-20T04:32:42;2.08;;;1.20;;
53977;SDS011;39886;47.984;-1.586;2023-03-20T04:35:08;2.28;;;1.08;;
53977;SDS011;39886;47.984;-1.586;2023-03-20T04:37:34;1.00;;;0.90;;
53977;SDS011;39886;47.984;-1.586;2023-03-20T04:40:00;2.03;;;1.27;;
53977;SDS011;39886;47.984;-1.586;2023-03-20T04:42:26;1.02;;;1.00;;
53977;SDS011;39886;47.984;-1.586;2023-03-20T04:44:52;2.00;;;1.15;;
53977;SDS011;39886;47.984;-1.586;2023-03-20T04:47:18;1.33;;;0.95;;
53977;SDS011;39886;47.984;-1.586;2023-03-20T04:49:43;1.58;;;1.05;;
53977;SDS011;39886;47.984;-1.586;2023-03-20T04:52:09;1.10;;;1.00;;
53977;SDS011;39886;47.984;-1.586;2023-03-20T04:54:35;2.40;;;1.15;;
53977;SDS011;39886;47.984;-1.586;2023-03-20T04:57:01;1.63;;;1.10;;
53977;SDS011;39886;47.984;-1.586;2023-03-20T04:59:26;1.55;;;1.10;;
53977;SDS011;39886;47.984;-1.586;2023-03-20T05:01:52;1.10;;;1.00;;
53977;SDS011;39886;47.984;-1.586;2023-03-20T05:04:18;1.67;;;1.00;;
53977;SDS011;39886;47.984;-1.586;2023-03-20T05:06:44;1.30;;;0.90;;
53977;SDS011;39886;47.984;-1.586;2023-03-20T05:09:13;0.85;;;0.85;;
53977;SDS011;39886;47.984;-1.586;2023-03-20T05:11:40;1.30;;;1.00;;
53977;SDS011;39886;47.984;-1.586;2023-03-20T05:14:05;2.60;;;1.20;;
53977;SDS011;39886;47.984;-1.586;2023-03-20T05:16:31;2.70;;;1.30;;
53977;SDS011;39886;47.984;-1.586;2023-03-20T05:18:57;2.47;;;0.98;;
53977;SDS011;39886;47.984;-1.586;2023-03-20T05:21:23;1.85;;;1.20;;
53977;SDS011;39886;47.984;-1.586;2023-03-20T05:23:49;1.75;;;1.33;;
53977;SDS011;39886;47.984;-1.586;2023-03-20T05:26:15;2.33;;;1.00;;
53977;SDS011;39886;47.984;-1.586;2023-03-20T05:28:41;1.83;;;1.00;;
53977;SDS011;39886;47.984;-1.586;2023-03-20T05:31:06;0.95;;;0.75;;
53977;SDS011;39886;47.984;-1.586;2023-03-20T05:33:35;1.73;;;1.05;;
53977;SDS011;39886;47.984;-1.586;2023-03-20T05:36:02;1.75;;;1.05;;
53977;SDS011;39886;47.984;-1.586;2023-03-20T05:38:28;1.65;;;1.10;;
53977;SDS011;39886;47.984;-1.586;2023-03-20T05:40:57;3.67;;;1.30;;
53977;SDS011;39886;47.984;-1.586;2023-03-20T05:43:24;1.33;;;1.10;;
53977;SDS011;39886;47.984;-1.586;2023-03-20T05:45:51;0.95;;;0.90;;
53977;SDS011;39886;47.984;-1.586;2023-03-20T05:48:17;1.17;;;0.93;;
53977;SDS011;39886;47.984;-1.586;2023-03-20T05:50:43;1.88;;;1.10;;
53977;SDS011;39886;47.984;-1.586;2023-03-20T05:53:09;2.15;;;1.05;;
53977;SDS011;39886;47.984;-1.586;2023-03-20T05:55:34;1.90;;;0.90;;
53977;SDS011;39886;47.984;-1.586;2023-03-20T05:58:00;1.20;;;0.90;;
53977;SDS011;39886;47.984;-1.586;2023-03-20T06:00:26;2.15;;;1.05;;
53977;SDS011;39886;47.984;-1.586;2023-03-20T06:02:52;1.13;;;0.90;;
53977;SDS011;39886;47.984;-1.586;2023-03-20T06:05:18;2.30;;;1.23;;
53977;SDS011;39886;47.984;-1.586;2023-03-20T06:07:44;0.98;;;0.90;;
53977;SDS011;39886;47.984;-1.586;2023-03-20T06:10:09;1.40;;;0.90;;
53977;SDS011;39886;47.984;-1.586;2023-03-20T06:12:35;1.42;;;0.90;;
53977;SDS011;39886;47.984;-1.586;2023-03-20T06:15:01;1.55;;;1.15;;
53977;SDS011;39886;47.984;-1.586;2023-03-20T06:17:27;1.60;;;1.00;;
53977;SDS011;39886;47.984;-1.586;2023-03-20T06:19:53;2.92;;;0.93;;
53977;SDS011;39886;47.984;-1.586;2023-03-20T06:22:19;1.23;;;0.95;;
53977;SDS011;39886;47.984;-1.586;2023-03-20T06:24:45;2.15;;;1.30;;
53977;SDS011;39886;47.984;-1.586;2023-03-20T06:27:11;1.42;;;1.00;;
53977;SDS011;39886;47.984;-1.586;2023-03-20T06:29:37;2.28;;;1.02;;
53977;SDS011;39886;47.984;-1.586;2023-03-20T06:32:05;1.23;;;1.00;;
53977;SDS011;39886;47.984;-1.586;2023-03-20T06:34:32;2.63;;;1.38;;
53977;SDS011;39886;47.984;-1.586;2023-03-20T06:36:57;2.33;;;1.30;;
53977;SDS011;39886;47.984;-1.586;2023-03-20T06:39:23;1.60;;;0.95;;
53977;SDS011;39886;47.984;-1.586;2023-03-20T06:41:49;1.13;;;1.02;;
53977;SDS011;39886;47.984;-1.586;2023-03-20T06:44:15;1.83;;;1.27;;
53977;SDS011;39886;47.984;-1.586;2023-03-20T06:46:40;1.83;;;1.10;;
53977;SDS011;39886;47.984;-1.586;2023-03-20T06:49:06;1.75;;;1.20;;
53977;SDS011;39886;47.984;-1.586;2023-03-20T06:51:32;1.60;;;1.10;;
53977;SDS011;39886;47.984;-1.586;2023-03-20T06:53:58;1.95;;;1.17;;
53977;SDS011;39886;47.984;-1.586;2023-03-20T06:56:23;1.33;;;0.95;;
53977;SDS011;39886;47.984;-1.586;2023-03-20T06:58:49;1.55;;;1.00;;
53977;SDS011;39886;47.984;-1.586;2023-03-20T07:01:16;1.70;;;1.10;;
53977;SDS011;39886;47.984;-1.586;2023-03-20T07:03:43;1.48;;;1.02;;
53977;SDS011;39886;47.984;-1.586;2023-03-20T07:06:10;1.42;;;1.10;;
53977;SDS011;39886;47.984;-1.586;2023-03-20T07:08:37;1.00;;;0.85;;
53977;SDS011;39886;47.984;-1.586;2023-03-20T07:11:03;1.58;;;0.90;;
53977;SDS011;39886;47.984;-1.586;2023-03-20T07:13:30;2.10;;;1.35;;
53977;SDS011;39886;47.984;-1.586;2023-03-20T07:15:56;1.50;;;1.20;;
53977;SDS011;39886;47.984;-1.586;2023-03-20T07:18:24;3.15;;;1.00;;
53977;SDS011;39886;47.984;-1.586;2023-03-20T07:20:51;1.83;;;1.17;;
53977;SDS011;39886;47.984;-1.586;2023-03-20T07:23:17;2.20;;;1.30;;
53977;SDS011;39886;47.984;-1.586;2023-03-20T07:25:44;2.17;;;1.17;;
53977;SDS011;39886;47.984;-1.586;2023-03-20T07:28:11;1.45;;;1.20;;
53977;SDS011;39886;47.984;-1.586;2023-03-20T07:30:36;1.00;;;0.90;;
53977;SDS011;39886;47.984;-1.586;2023-03-20T07:33:02;1.73;;;1.13;;
53977;SDS011;39886;47.984;-1.586;2023-03-20T07:35:28;2.10;;;1.30;;
53977;SDS011;39886;47.984;-1.586;2023-03-20T07:37:54;1.48;;;1.20;;
53977;SDS011;39886;47.984;-1.586;2023-03-20T07:40:20;4.43;;;1.20;;
53977;SDS011;39886;47.984;-1.586;2023-03-20T07:42:45;1.83;;;1.08;;
53977;SDS011;39886;47.984;-1.586;2023-03-20T07:45:11;1.45;;;0.98;;
53977;SDS011;39886;47.984;-1.586;2023-03-20T07:47:38;2.95;;;1.15;;
53977;SDS011;39886;47.984;-1.586;2023-03-20T07:50:04;2.80;;;1.35;;
53977;SDS011;39886;47.984;-1.586;2023-03-20T07:52:30;2.83;;;1.30;;
53977;SDS011;39886;47.984;-1.586;2023-03-20T07:54:56;4.03;;;1.20;;
53977;SDS011;39886;47.984;-1.586;2023-03-20T07:57:22;1.48;;;1.10;;
53977;SDS011;39886;47.984;-1.586;2023-03-20T07:59:47;2.17;;;1.30;;
53977;SDS011;39886;47.984;-1.586;2023-03-20T08:02:16;1.60;;;1.15;;
53977;SDS011;39886;47.984;-1.586;2023-03-20T08:04:42;2.72;;;1.30;;
53977;SDS011;39886;47.984;-1.586;2023-03-20T08:07:09;1.73;;;1.20;;
53977;SDS011;39886;47.984;-1.586;2023-03-20T08:09:35;2.50;;;1.27;;
53977;SDS011;39886;47.984;-1.586;2023-03-20T08:12:01;3.95;;;1.48;;
53977;SDS011;39886;47.984;-1.586;2023-03-20T08:14:27;2.58;;;1.23;;
53977;SDS011;39886;47.984;-1.586;2023-03-20T08:16:53;5.57;;;1.55;;
53977;SDS011;39886;47.984;-1.586;2023-03-20T08:19:19;2.53;;;1.15;;
53977;SDS011;39886;47.984;-1.586;2023-03-20T08:21:45;2.75;;;1.30;;
53977;SDS011;39886;47.984;-1.586;2023-03-20T08:24:11;2.58;;;1.13;;
53977;SDS011;39886;47.984;-1.586;2023-03-20T08:26:37;2.55;;;1.25;;
53977;SDS011;39886;47.984;-1.586;2023-03-20T08:29:02;3.28;;;1.65;;
53977;SDS011;39886;47.984;-1.586;2023-03-20T08:31:28;1.95;;;1.13;;
53977;SDS011;39886;47.984;-1.586;2023-03-20T08:33:55;2.97;;;1.10;;
53977;SDS011;39886;47.984;-1.586;2023-03-20T08:36:21;1.65;;;1.17;;
53977;SDS011;39886;47.984;-1.586;2023-03-20T08:38:47;5.18;;;1.35;;
53977;SDS011;39886;47.984;-1.586;2023-03-20T08:41:14;4.93;;;1.30;;
53977;SDS011;39886;47.984;-1.586;2023-03-20T08:43:40;3.13;;;1.35;;
53977;SDS011;39886;47.984;-1.586;2023-03-20T08:46:06;1.30;;;1.08;;
53977;SDS011;39886;47.984;-1.586;2023-03-20T08:48:33;2.90;;;1.13;;
53977;SDS011;39886;47.984;-1.586;2023-03-20T08:50:59;2.10;;;1.45;;
53977;SDS011;39886;47.984;-1.586;2023-03-20T08:53:25;2.45;;;1.13;;
53977;SDS011;39886;47.984;-1.586;2023-03-20T08:55:51;4.38;;;1.50;;
53977;SDS011;39886;47.984;-1.586;2023-03-20T08:58:20;2.28;;;1.13;;
53977;SDS011;39886;47.984;-1.586;2023-03-20T09:00:47;2.55;;;1.48;;
53977;SDS011;39886;47.984;-1.586;2023-03-20T09:03:13;2.47;;;1.30;;
53977;SDS011;39886;47.984;-1.586;2023-03-20T09:05:44;3.33;;;1.20;;
53977;SDS011;39886;47.984;-1.586;2023-03-20T09:08:11;2.05;;;1.35;;
53977;SDS011;39886;47.984;-1.586;2023-03-20T09:10:37;2.28;;;1.13;;
53977;SDS011;39886;47.984;-1.586;2023-03-20T09:13:04;3.75;;;1.70;;
53977;SDS011;39886;47.984;-1.586;2023-03-20T09:15:30;3.80;;;1.30;;
53977;SDS011;39886;47.984;-1.586;2023-03-20T09:17:56;3.55;;;1.23;;
53977;SDS011;39886;47.984;-1.586;2023-03-20T09:20:22;4.72;;;1.25;;
53977;SDS011;39886;47.984;-1.586;2023-03-20T09:22:48;4.00;;;1.27;;
53977;SDS011;39886;47.984;-1.586;2023-03-20T09:25:14;3.08;;;1.40;;
53977;SDS011;39886;47.984;-1.586;2023-03-20T09:27:40;4.85;;;1.50;;
53977;SDS011;39886;47.984;-1.586;2023-03-20T09:30:06;4.20;;;1.25;;
53977;SDS011;39886;47.984;-1.586;2023-03-20T09:32:33;2.60;;;1.40;;
53977;SDS011;39886;47.984;-1.586;2023-03-20T09:35:00;2.72;;;1.15;;
53977;SDS011;39886;47.984;-1.586;2023-03-20T09:37:26;3.50;;;1.13;;
53977;SDS011;39886;47.984;-1.586;2023-03-20T09:39:52;4.07;;;1.40;;
53977;SDS011;39886;47.984;-1.586;2023-03-20T09:44:55;3.08;;;1.20;;
53977;SDS011;39886;47.984;-1.586;2023-03-20T09:47:34;3.50;;;1.20;;
53977;SDS011;39886;47.984;-1.586;2023-03-20T09:52:56;9.73;;;1.50;;
53977;SDS011;39886;47.984;-1.586;2023-03-20T09:55:35;3.33;;;1.40;;
53977;SDS011;39886;47.984;-1.586;2023-03-20T09:58:05;3.92;;;1.20;;
53977;SDS011;39886;47.984;-1.586;2023-03-20T10:00:34;3.63;;;1.40;;
53977;SDS011;39886;47.984;-1.586;2023-03-20T10:03:05;1.73;;;1.13;;
53977;SDS011;39886;47.984;-1.586;2023-03-20T10:05:37;4.40;;;1.50;;
53977;SDS011;39886;47.984;-1.586;2023-03-20T10:08:11;2.70;;;1.38;;
53977;SDS011;39886;47.984;-1.586;2023-03-20T10:18:56;2.35;;;1.17;;
53977;SDS011;39886;47.984;-1.586;2023-03-20T10:21:39;5.90;;;1.50;;
53977;SDS011;39886;47.984;-1.586;2023-03-20T10:26:48;2.50;;;1.58;;
53977;SDS011;39886;47.984;-1.586;2023-03-20T10:42:54;4.28;;;1.20;;
53977;SDS011;39886;47.984;-1.586;2023-03-20T10:48:01;3.65;;;1.67;;
53977;SDS011;39886;47.984;-1.586;2023-03-20T10:50:44;3.55;;;1.63;;
53977;SDS011;39886;47.984;-1.586;2023-03-20T10:53:18;2.80;;;1.30;;
53977;SDS011;39886;47.984;-1.586;2023-03-20T10:55:50;4.97;;;1.75;;
53977;SDS011;39886;47.984;-1.586;2023-03-20T10:58:21;2.97;;;1.48;;
53977;SDS011;39886;47.984;-1.586;2023-03-20T11:00:50;3.83;;;1.95;;
53977;SDS011;39886;47.984;-1.586;2023-03-20T11:03:20;4.32;;;1.60;;
53977;SDS011;39886;47.984;-1.586;2023-03-20T11:05:50;1.45;;;1.35;;
53977;SDS011;39886;47.984;-1.586;2023-03-20T11:08:24;2.53;;;1.50;;
53977;SDS011;39886;47.984;-1.586;2023-03-20T11:10:58;4.55;;;1.90;;
53977;SDS011;39886;47.984;-1.586;2023-03-20T11:13:29;3.97;;;1.77;;
53977;SDS011;39886;47.984;-1.586;2023-03-20T11:16:06;3.30;;;1.90;;
53977;SDS011;39886;47.984;-1.586;2023-03-20T11:18:33;7.63;;;1.88;;
53977;SDS011;39886;47.984;-1.586;2023-03-20T11:21:00;4.20;;;1.83;;
53977;SDS011;39886;47.984;-1.586;2023-03-20T11:23:27;4.70;;;1.80;;
53977;SDS011;39886;47.984;-1.586;2023-03-20T11:25:57;7.07;;;1.90;;
53977;SDS011;39886;47.984;-1.586;2023-03-20T11:28:33;2.75;;;1.95;;
53977;SDS011;39886;47.984;-1.586;2023-03-20T11:33:39;3.47;;;1.65;;
53977;SDS011;39886;47.984;-1.586;2023-03-20T11:36:20;4.95;;;2.00;;
53977;SDS011;39886;47.984;-1.586;2023-03-20T11:38:51;4.13;;;1.50;;
53977;SDS011;39886;47.984;-1.586;2023-03-20T11:41:25;5.47;;;1.63;;
53977;SDS011;39886;47.984;-1.586;2023-03-20T11:43:52;6.10;;;2.00;;
53977;SDS011;39886;47.984;-1.586;2023-03-20T11:46:19;4.47;;;1.92;;
53977;SDS011;39886;47.984;-1.586;2023-03-20T11:48:48;3.85;;;1.90;;
53977;SDS011;39886;47.984;-1.586;2023-03-20T11:51:31;5.25;;;1.90;;
53977;SDS011;39886;47.984;-1.586;2023-03-20T11:54:00;3.33;;;1.80;;
53977;SDS011;39886;47.984;-1.586;2023-03-20T11:56:29;3.58;;;1.83;;
53977;SDS011;39886;47.984;-1.586;2023-03-20T12:01:39;4.68;;;1.60;;
53977;SDS011;39886;47.984;-1.586;2023-03-20T12:04:15;4.47;;;1.85;;
53977;SDS011;39886;47.984;-1.586;2023-03-20T12:09:41;4.38;;;1.75;;
53977;SDS011;39886;47.984;-1.586;2023-03-20T12:17:35;2.45;;;1.63;;
53977;SDS011;39886;47.984;-1.586;2023-03-20T12:23:02;2.80;;;1.60;;
53977;SDS011;39886;47.984;-1.586;2023-03-20T12:31:25;4.35;;;1.83;;
53977;SDS011;39886;47.984;-1.586;2023-03-20T12:36:43;4.78;;;1.88;;
53977;SDS011;39886;47.984;-1.586;2023-03-20T12:39:14;1.60;;;1.40;;
53977;SDS011;39886;47.984;-1.586;2023-03-20T12:57:38;5.80;;;1.90;;
53977;SDS011;39886;47.984;-1.586;2023-03-20T13:00:17;3.05;;;1.98;;
53977;SDS011;39886;47.984;-1.586;2023-03-20T13:02:57;3.95;;;1.88;;
53977;SDS011;39886;47.984;-1.586;2023-03-20T13:05:45;4.93;;;1.50;;
53977;SDS011;39886;47.984;-1.586;2023-03-20T13:10:54;2.40;;;1.40;;
53977;SDS011;39886;47.984;-1.586;2023-03-20T13:16:17;2.45;;;1.65;;
53977;SDS011;39886;47.984;-1.586;2023-03-20T13:21:56;3.28;;;1.50;;
53977;SDS011;39886;47.984;-1.586;2023-03-20T13:24:44;3.72;;;1.65;;
53977;SDS011;39886;47.984;-1.586;2023-03-20T13:27:18;2.90;;;1.63;;
53977;SDS011;39886;47.984;-1.586;2023-03-20T13:32:56;2.65;;;1.67;;
53977;SDS011;39886;47.984;-1.586;2023-03-20T13:38:17;3.22;;;1.40;;
53977;SDS011;39886;47.984;-1.586;2023-03-20T13:40:46;5.20;;;1.42;;
53977;SDS011;39886;47.984;-1.586;2023-03-20T13:45:55;4.47;;;1.55;;
53977;SDS011;39886;47.984;-1.586;2023-03-20T13:48:44;3.90;;;1.60;;
53977;SDS011;39886;47.984;-1.586;2023-03-20T13:53:55;6.40;;;1.63;;
53977;SDS011;39886;47.984;-1.586;2023-03-20T13:56:30;3.33;;;1.58;;
53977;SDS011;39886;47.984;-1.586;2023-03-20T14:04:27;4.32;;;1.58;;
53977;SDS011;39886;47.984;-1.586;2023-03-20T14:06:55;4.40;;;1.20;;
53977;SDS011;39886;47.984;-1.586;2023-03-20T14:09:32;3.63;;;1.88;;
53977;SDS011;39886;47.984;-1.586;2023-03-20T14:12:09;3.58;;;1.83;;
53977;SDS011;39886;47.984;-1.586;2023-03-20T14:14:48;3.28;;;1.40;;
53977;SDS011;39886;47.984;-1.586;2023-03-20T14:17:18;3.72;;;1.70;;
53977;SDS011;39886;47.984;-1.586;2023-03-20T14:19:47;4.28;;;1.65;;
53977;SDS011;39886;47.984;-1.586;2023-03-20T14:22:28;2.15;;;1.50;;
53977;SDS011;39886;47.984;-1.586;2023-03-20T14:24:59;1.70;;;1.27;;
53977;SDS011;39886;47.984;-1.586;2023-03-20T14:27:33;2.58;;;1.60;;
53977;SDS011;39886;47.984;-1.586;2023-03-20T14:35:25;4.20;;;1.60;;
53977;SDS011;39886;47.984;-1.586;2023-03-20T14:38:01;3.53;;;1.88;;
53977;SDS011;39886;47.984;-1.586;2023-03-20T14:51:49;2.85;;;1.60;;
53977;SDS011;39886;47.984;-1.586;2023-03-20T14:56:49;9.10;;;1.83;;
53977;SDS011;39886;47.984;-1.586;2023-03-20T14:59:16;3.17;;;1.60;;
53977;SDS011;39886;47.984;-1.586;2023-03-20T15:01:52;5.65;;;1.83;;
53977;SDS011;39886;47.984;-1.586;2023-03-20T15:07:17;3.75;;;1.63;;
53977;SDS011;39886;47.984;-1.586;2023-03-20T15:09:49;11.38;;;1.65;;
53977;SDS011;39886;47.984;-1.586;2023-03-20T15:12:19;2.70;;;1.40;;
53977;SDS011;39886;47.984;-1.586;2023-03-20T15:14:55;4.57;;;1.48;;
53977;SDS011;39886;47.984;-1.586;2023-03-20T15:17:26;3.30;;;1.65;;
53977;SDS011;39886;47.984;-1.586;2023-03-20T15:20:11;3.55;;;1.52;;
53977;SDS011;39886;47.984;-1.586;2023-03-20T15:22:57;5.03;;;1.50;;
53977;SDS011;39886;47.984;-1.586;2023-03-20T15:25:44;4.22;;;1.60;;
53977;SDS011;39886;47.984;-1.586;2023-03-20T15:28:11;4.82;;;1.92;;
53977;SDS011;39886;47.984;-1.586;2023-03-20T15:30:47;4.78;;;1.95;;
53977;SDS011;39886;47.984;-1.586;2023-03-20T15:33:15;6.38;;;1.83;;
53977;SDS011;39886;47.984;-1.586;2023-03-20T15:35:46;3.67;;;1.40;;
53977;SDS011;39886;47.984;-1.586;2023-03-20T15:38:13;2.83;;;1.63;;
53977;SDS011;39886;47.984;-1.586;2023-03-20T15:40:41;3.38;;;1.40;;
53977;SDS011;39886;47.984;-1.586;2023-03-20T15:43:11;4.82;;;1.98;;
53977;SDS011;39886;47.984;-1.586;2023-03-20T15:45:48;3.17;;;1.48;;
53977;SDS011;39886;47.984;-1.586;2023-03-20T15:48:19;3.85;;;1.73;;
53977;SDS011;39886;47.984;-1.586;2023-03-20T15:51:05;6.40;;;1.70;;
53977;SDS011;39886;47.984;-1.586;2023-03-20T15:53:36;2.65;;;1.52;;
53977;SDS011;39886;47.984;-1.586;2023-03-20T15:56:07;3.13;;;1.80;;
53977;SDS011;39886;47.984;-1.586;2023-03-20T15:58:39;8.45;;;1.70;;
53977;SDS011;39886;47.984;-1.586;2023-03-20T16:01:06;3.58;;;1.65;;
53977;SDS011;39886;47.984;-1.586;2023-03-20T16:03:33;3.50;;;1.50;;
53977;SDS011;39886;47.984;-1.586;2023-03-20T16:06:02;4.28;;;1.52;;
53977;SDS011;39886;47.984;-1.586;2023-03-20T16:08:33;4.07;;;1.70;;
53977;SDS011;39886;47.984;-1.586;2023-03-20T16:11:00;4.65;;;1.60;;
53977;SDS011;39886;47.984;-1.586;2023-03-20T16:13:32;3.05;;;1.50;;
53977;SDS011;39886;47.984;-1.586;2023-03-20T16:16:05;3.72;;;2.00;;
53977;SDS011;39886;47.984;-1.586;2023-03-20T16:18:35;4.10;;;1.60;;
53977;SDS011;39886;47.984;-1.586;2023-03-20T16:21:04;5.18;;;1.60;;
53977;SDS011;39886;47.984;-1.586;2023-03-20T16:23:39;6.30;;;1.60;;
53977;SDS011;39886;47.984;-1.586;2023-03-20T16:26:18;4.22;;;1.90;;
53977;SDS011;39886;47.984;-1.586;2023-03-20T16:28:47;4.10;;;1.90;;
53977;SDS011;39886;47.984;-1.586;2023-03-20T16:31:16;4.47;;;1.40;;
53977;SDS011;39886;47.984;-1.586;2023-03-20T16:33:44;6.55;;;1.75;;
53977;SDS011;39886;47.984;-1.586;2023-03-20T16:36:15;4.35;;;1.55;;
53977;SDS011;39886;47.984;-1.586;2023-03-20T16:41:30;6.18;;;1.80;;
53977;SDS011;39886;47.984;-1.586;2023-03-20T16:43:58;5.05;;;1.77;;
53977;SDS011;39886;47.984;-1.586;2023-03-20T16:46:29;3.60;;;1.90;;
53977;SDS011;39886;47.984;-1.586;2023-03-20T16:49:11;2.25;;;1.15;;
53977;SDS011;39886;47.984;-1.586;2023-03-20T16:51:56;3.72;;;1.55;;
53977;SDS011;39886;47.984;-1.586;2023-03-20T16:54:25;7.65;;;1.52;;
53977;SDS011;39886;47.984;-1.586;2023-03-20T16:56:53;4.20;;;1.45;;
53977;SDS011;39886;47.984;-1.586;2023-03-20T16:59:22;4.97;;;1.58;;
53977;SDS011;39886;47.984;-1.586;2023-03-20T17:01:49;4.15;;;1.50;;
53977;SDS011;39886;47.984;-1.586;2023-03-20T17:04:32;5.30;;;1.83;;
53977;SDS011;39886;47.984;-1.586;2023-03-20T17:07:00;4.43;;;1.88;;
53977;SDS011;39886;47.984;-1.586;2023-03-20T17:09:31;1.77;;;1.50;;
53977;SDS011;39886;47.984;-1.586;2023-03-20T17:12:31;2.97;;;1.60;;
53977;SDS011;39886;47.984;-1.586;2023-03-20T17:14:50;2.85;;;1.30;;
53977;SDS011;39886;47.984;-1.586;2023-03-20T17:17:18;3.40;;;1.35;;
53977;SDS011;39886;47.984;-1.586;2023-03-20T17:19:46;4.85;;;1.75;;
53977;SDS011;39886;47.984;-1.586;2023-03-20T17:22:17;2.88;;;1.35;;
53977;SDS011;39886;47.984;-1.586;2023-03-20T17:24:45;6.63;;;1.48;;
53977;SDS011;39886;47.984;-1.586;2023-03-20T17:27:11;3.10;;;1.50;;
53977;SDS011;39886;47.984;-1.586;2023-03-20T17:29:39;4.25;;;1.50;;
53977;SDS011;39886;47.984;-1.586;2023-03-20T17:32:09;3.92;;;1.50;;